createdAt,value
2022-12-17T00:00:57.941Z,100802.43
2022-12-17T00:04:23.655Z,100793.56
2022-12-17T00:07:48.170Z,100787.20
2022-12-17T00:11:11.019Z,100783.34
2022-12-17T00:14:35.455Z,100784.70
2022-12-17T00:17:59.096Z,100779.68
2022-12-17T00:21:30.457Z,100781.39
2022-12-17T00:24:53.413Z,100778.69
2022-12-17T00:28:19.214Z,100765.05
2022-12-17T00:31:43.383Z,100773.41
2022-12-17T00:35:07.931Z,100767.48
2022-12-17T00:38:21.124Z,100761.72
2022-12-17T00:41:43.870Z,100745.48
2022-12-17T00:45:08.473Z,100742.42
2022-12-17T00:48:33.508Z,100746.36
2022-12-17T00:51:57.406Z,100748.94
2022-12-17T00:55:21.342Z,100758.05
2022-12-17T00:58:43.887Z,100748.96
2022-12-17T01:02:09.772Z,100750.19
2022-12-17T01:05:35.124Z,100751.09
2022-12-17T01:08:58.504Z,100750.48
2022-12-17T01:12:21.620Z,100749.23
2022-12-17T01:15:47.350Z,100747.52
2022-12-17T01:19:11.142Z,100739.06
2022-12-17T01:22:35.145Z,100730.55
2022-12-17T01:26:01.390Z,100719.23
2022-12-17T01:29:26.871Z,100720.72
2022-12-17T01:32:50.444Z,100708.16
2022-12-17T01:36:15.124Z,100703.97
2022-12-17T01:39:39.862Z,100699.07
2022-12-17T01:43:12.609Z,100714.67
2022-12-17T01:46:35.975Z,100720.95
2022-12-17T01:49:59.191Z,100718.84
2022-12-17T01:53:23.607Z,100708.77
2022-12-17T01:56:31.473Z,100715.91
2022-12-17T01:59:58.620Z,100714.81
2022-12-17T02:03:25.140Z,100701.64
2022-12-17T02:06:58.875Z,100703.62
2022-12-17T02:10:45.468Z,100704.86
2022-12-17T02:14:13.941Z,100716.79
2022-12-17T02:17:39.166Z,100717.27
2022-12-17T02:21:16.659Z,100709.29
2022-12-17T02:24:46.265Z,100711.10
2022-12-17T02:28:10.691Z,100711.59
2022-12-17T02:31:19.699Z,100713.93
2022-12-17T02:34:42.491Z,100712.23
2022-12-17T02:38:06.393Z,100716.88
2022-12-17T02:41:29.091Z,100708.41
2022-12-17T02:44:54.528Z,100707.77
2022-12-17T02:48:18.535Z,100698.80
2022-12-17T02:51:42.682Z,100695.48
2022-12-17T02:55:07.726Z,100696.31
2022-12-17T02:58:32.881Z,100685.88
2022-12-17T03:01:55.611Z,100684.39
2022-12-17T03:05:43.887Z,100689.68
2022-12-17T03:08:46.259Z,100701.13
2022-12-17T03:12:10.136Z,100686.23
2022-12-17T03:15:35.030Z,100677.98
2022-12-17T03:18:55.610Z,100658.41
2022-12-17T03:22:19.973Z,100651.52
2022-12-17T03:25:44.700Z,100652.25
2022-12-17T03:29:09.981Z,100662.38
2022-12-17T03:32:33.542Z,100662.98
2022-12-17T03:36:00.159Z,100657.36
2022-12-17T03:39:23.653Z,100653.29
2022-12-17T03:42:48.327Z,100656.73
2022-12-17T03:46:12.714Z,100671.40
2022-12-17T03:49:35.623Z,100690.07
2022-12-17T03:52:58.328Z,100699.16
2022-12-17T03:56:21.810Z,100695.59
2022-12-17T03:59:45.534Z,100677.03
2022-12-17T04:03:09.401Z,100686.62
2022-12-17T04:06:30.824Z,100693.50
2022-12-17T04:09:54.147Z,100688.22
2022-12-17T04:13:17.490Z,100663.11
2022-12-17T04:16:42.772Z,100654.73
2022-12-17T04:20:07.153Z,100646.13
2022-12-17T04:23:30.729Z,100655.22
2022-12-17T04:26:54.175Z,100671.08
2022-12-17T04:30:19.641Z,100687.33
2022-12-17T04:33:43.408Z,100689.17
2022-12-17T04:37:07.634Z,100692.77
2022-12-17T04:40:31.499Z,100711.84
2022-12-17T04:43:59.667Z,100708.27
2022-12-17T04:47:20.566Z,100701.25
2022-12-17T04:50:43.826Z,100693.97
2022-12-17T04:54:05.816Z,100677.85
2022-12-17T04:57:29.997Z,100688.30
2022-12-17T05:00:53.359Z,100687.05
2022-12-17T05:04:15.937Z,100674.02
2022-12-17T05:07:38.559Z,100686.91
2022-12-17T05:11:01.115Z,100676.47
2022-12-17T05:14:23.310Z,100677.34
2022-12-17T05:17:47.077Z,100668.70
2022-12-17T05:21:11.382Z,100651.22
2022-12-17T05:24:37.908Z,100643.09
2022-12-17T05:28:01.579Z,100643.19
2022-12-17T05:31:27.458Z,100639.73
2022-12-17T05:34:50.250Z,100638.38
2022-12-17T05:38:04.580Z,100647.41
2022-12-17T05:41:30.086Z,100670.56
2022-12-17T05:44:53.938Z,100675.86
2022-12-17T05:48:18.019Z,100683.95
2022-12-17T05:51:41.853Z,100682.20
2022-12-17T05:55:03.695Z,100685.30
2022-12-17T05:58:38.590Z,100700.20
2022-12-17T06:02:00.890Z,100694.39
2022-12-17T06:05:24.173Z,100679.23
2022-12-17T06:08:47.278Z,100696.20
2022-12-17T06:12:11.342Z,100678.32
2022-12-17T06:15:34.789Z,100673.73
2022-12-17T06:18:58.400Z,100683.34
2022-12-17T06:22:24.973Z,100676.08
2022-12-17T06:25:47.855Z,100673.73
2022-12-17T06:29:12.060Z,100665.98
2022-12-17T06:32:34.400Z,100653.52
2022-12-17T06:35:59.952Z,100656.70
2022-12-17T06:39:22.482Z,100661.73
2022-12-17T06:42:46.384Z,100651.36
2022-12-17T06:46:09.555Z,100664.27
2022-12-17T06:49:32.310Z,100682.62
2022-12-17T06:52:58.062Z,100694.95
2022-12-17T06:56:21.676Z,100697.87
2022-12-17T06:59:44.285Z,100687.16
2022-12-17T07:03:10.189Z,100675.23
2022-12-17T07:06:34.641Z,100672.30
2022-12-17T07:09:58.750Z,100670.55
2022-12-17T07:13:22.057Z,100669.59
2022-12-17T07:16:45.427Z,100653.41
2022-12-17T07:20:09.080Z,100668.78
2022-12-17T07:23:32.562Z,100666.16
2022-12-17T07:26:55.000Z,100657.75
2022-12-17T07:30:04.737Z,100649.73
2022-12-17T07:33:34.437Z,100629.88
2022-12-17T07:36:58.606Z,100614.83
2022-12-17T07:40:22.302Z,100625.79
2022-12-17T07:43:49.648Z,100623.16
2022-12-17T07:47:10.054Z,100614.61
2022-12-17T07:50:32.721Z,100616.16
2022-12-17T07:53:56.348Z,100616.86
2022-12-17T07:57:17.790Z,100610.77
2022-12-17T08:00:47.553Z,100610.70
2022-12-17T08:04:07.545Z,100613.00
2022-12-17T08:07:31.539Z,100605.53
2022-12-17T08:10:58.446Z,100605.36
2022-12-17T08:14:22.131Z,100614.65
2022-12-17T08:17:45.491Z,100608.45
2022-12-17T08:21:09.633Z,100607.06
2022-12-17T08:24:31.940Z,100602.42
2022-12-17T08:27:55.835Z,100594.48
2022-12-17T08:31:21.036Z,100586.93
2022-12-17T08:34:45.014Z,100590.52
2022-12-17T08:38:09.413Z,100594.52
2022-12-17T08:41:33.754Z,100571.81
2022-12-17T08:44:57.262Z,100566.79
2022-12-17T08:48:20.251Z,100568.45
2022-12-17T08:51:47.343Z,100572.23
2022-12-17T08:55:12.197Z,100578.54
2022-12-17T08:58:35.404Z,100577.07
2022-12-17T09:01:58.607Z,100561.98
2022-12-17T09:05:25.462Z,100543.72
2022-12-17T09:08:49.646Z,100546.03
2022-12-17T09:12:14.114Z,100533.28
2022-12-17T09:15:39.011Z,100517.91
2022-12-17T09:19:02.057Z,100527.94
2022-12-17T09:22:26.089Z,100526.53
2022-12-17T09:25:52.477Z,100519.89
2022-12-17T09:29:14.530Z,100507.38
2022-12-17T09:32:38.675Z,100497.42
2022-12-17T09:36:02.731Z,100488.88
2022-12-17T09:39:26.601Z,100492.27
2022-12-17T09:43:01.613Z,100487.07
2022-12-17T09:46:33.702Z,100468.33
2022-12-17T09:49:59.779Z,100482.73
2022-12-17T09:53:23.902Z,100480.25
2022-12-17T09:56:47.186Z,100485.39
2022-12-17T10:00:10.812Z,100484.03
2022-12-17T10:03:35.310Z,100490.82
2022-12-17T10:06:59.015Z,100487.81
2022-12-17T10:10:25.092Z,100486.64
2022-12-17T10:13:51.496Z,100468.78
2022-12-17T10:17:19.358Z,100453.48
2022-12-17T10:21:11.914Z,100455.33
2022-12-17T10:24:43.545Z,100458.97
2022-12-17T10:28:06.421Z,100452.93
2022-12-17T10:31:30.156Z,100424.95
2022-12-17T10:34:52.571Z,100404.10
2022-12-17T10:38:15.585Z,100395.64
2022-12-17T10:41:50.622Z,100386.53
2022-12-17T10:45:13.719Z,100401.75
2022-12-17T10:48:38.872Z,100410.51
2022-12-17T10:52:08.109Z,100400.69
2022-12-17T10:55:34.582Z,100402.05
2022-12-17T10:59:00.784Z,100413.14
2022-12-17T11:02:30.124Z,100411.63
2022-12-17T11:06:03.393Z,100410.30
2022-12-17T11:09:27.700Z,100392.16
2022-12-17T11:12:51.630Z,100393.92
2022-12-17T11:16:32.639Z,100404.08
2022-12-17T11:20:20.687Z,100398.69
2022-12-17T11:23:51.635Z,100426.31
2022-12-17T11:27:15.173Z,100415.83
2022-12-17T11:30:48.094Z,100409.73
2022-12-17T11:34:39.189Z,100398.84
2022-12-17T11:38:10.630Z,100379.78
2022-12-17T11:41:19.143Z,100350.33
2022-12-17T11:45:01.040Z,100357.14
2022-12-17T11:48:21.772Z,100365.36
2022-12-17T11:52:03.756Z,100390.60
2022-12-17T11:56:09.648Z,100408.33
2022-12-17T12:00:13.017Z,100413.30
2022-12-17T12:04:07.487Z,100402.16
2022-12-17T12:08:02.358Z,100397.48
2022-12-17T12:11:32.928Z,100378.81
2022-12-17T12:15:12.382Z,100369.13
2022-12-17T12:19:08.817Z,100336.11
2022-12-17T12:22:53.106Z,100283.00
2022-12-17T12:26:43.522Z,100289.86
2022-12-17T12:30:35.640Z,100267.74
2022-12-17T12:34:27.327Z,100272.54
2022-12-17T12:37:51.099Z,100262.55
2022-12-17T12:41:32.909Z,100280.43
2022-12-17T12:45:35.563Z,100288.28
2022-12-17T12:49:14.993Z,100263.75
2022-12-17T12:52:41.894Z,100253.38
2022-12-17T12:56:15.051Z,100273.17
2022-12-17T12:59:55.194Z,100263.67
2022-12-17T13:03:18.249Z,100243.22
2022-12-17T13:06:23.920Z,100245.09
2022-12-17T13:09:36.820Z,100228.59
2022-12-17T13:12:51.772Z,100250.61
2022-12-17T13:16:05.517Z,100267.34
2022-12-17T13:19:20.729Z,100274.52
2022-12-17T13:22:32.200Z,100255.63
2022-12-17T13:25:38.172Z,100232.97
2022-12-17T13:28:44.550Z,100234.53
2022-12-17T13:32:00.867Z,100232.83
2022-12-17T13:35:33.190Z,100227.70
2022-12-17T13:39:00.145Z,100213.06
2022-12-17T13:42:08.383Z,100225.33
2022-12-17T13:45:15.626Z,100214.25
2022-12-17T13:48:25.092Z,100200.97
2022-12-17T13:51:36.123Z,100196.70
2022-12-17T13:54:42.297Z,100198.73
2022-12-17T13:57:48.536Z,100192.97
2022-12-17T14:00:54.461Z,100192.27
2022-12-17T14:04:10.700Z,100200.97
2022-12-17T14:07:19.089Z,100204.75
2022-12-17T14:10:31.075Z,100203.88
2022-12-17T14:13:36.948Z,100205.26
2022-12-17T14:16:47.455Z,100201.84
2022-12-17T14:19:51.236Z,100198.42
2022-12-17T14:22:58.884Z,100195.34
2022-12-17T14:26:05.630Z,100197.59
2022-12-17T14:29:11.582Z,100203.06
2022-12-17T14:32:21.573Z,100192.27
2022-12-17T14:35:45.222Z,100189.20
2022-12-17T14:38:51.888Z,100180.31
2022-12-17T14:42:16.003Z,100175.19
2022-12-17T14:45:25.792Z,100171.25
2022-12-17T14:48:34.505Z,100166.77
2022-12-17T14:51:46.690Z,100176.14
2022-12-17T14:54:52.960Z,100164.17
2022-12-17T14:57:58.669Z,100168.78
2022-12-17T15:01:19.007Z,100155.59
2022-12-17T15:04:27.053Z,100146.53
2022-12-17T15:07:40.693Z,100139.84
2022-12-17T15:10:46.045Z,100150.42
2022-12-17T15:13:56.294Z,100139.12
2022-12-17T15:17:03.988Z,100125.59
2022-12-17T15:20:09.650Z,100118.78
2022-12-17T15:23:16.062Z,100119.11
2022-12-17T15:26:24.274Z,100104.89
2022-12-17T15:29:31.812Z,100090.66
2022-12-17T15:32:37.807Z,100086.38
2022-12-17T15:35:44.724Z,100086.87
2022-12-17T15:38:50.741Z,100075.56
2022-12-17T15:42:16.958Z,100070.23
2022-12-17T15:45:26.220Z,100070.72
2022-12-17T15:48:36.494Z,100077.02
2022-12-17T15:51:43.326Z,100077.15
2022-12-17T15:54:50.461Z,100081.93
2022-12-17T15:57:57.433Z,100073.53
2022-12-17T16:01:02.809Z,100083.28
2022-12-17T16:04:16.789Z,100072.98
2022-12-17T16:07:19.352Z,100086.66
2022-12-17T16:10:26.329Z,100071.23
2022-12-17T16:13:32.605Z,100060.23
2022-12-17T16:16:39.688Z,100059.35
2022-12-17T16:19:45.835Z,100052.14
2022-12-17T16:22:52.810Z,100070.74
2022-12-17T16:25:58.442Z,100063.56
2022-12-17T16:29:03.067Z,100056.66
2022-12-17T16:32:09.199Z,100049.95
2022-12-17T16:35:15.359Z,100048.88
2022-12-17T16:38:23.011Z,100046.63
2022-12-17T16:41:28.451Z,100056.19
2022-12-17T16:44:35.394Z,100046.41
2022-12-17T16:47:41.039Z,100043.30
2022-12-17T16:50:48.922Z,100050.27
2022-12-17T16:53:55.453Z,100049.71
2022-12-17T16:57:01.339Z,100054.49
2022-12-17T17:00:06.755Z,100054.97
2022-12-17T17:03:13.488Z,100036.28
2022-12-17T17:06:22.178Z,100035.90
2022-12-17T17:09:29.132Z,100041.13
2022-12-17T17:12:34.502Z,100025.48
2022-12-17T17:15:39.543Z,100013.63
2022-12-17T17:18:47.431Z,100003.66
2022-12-17T17:21:55.974Z,100011.18
2022-12-17T17:25:01.657Z,100009.11
2022-12-17T17:28:09.255Z,100039.89
2022-12-17T17:31:15.915Z,100033.20
2022-12-17T17:34:27.987Z,100022.91
2022-12-17T17:37:36.467Z,100037.05
2022-12-17T17:40:45.025Z,100049.20
2022-12-17T17:43:51.342Z,100056.20
2022-12-17T17:46:58.464Z,100050.86
2022-12-17T17:50:08.614Z,100058.88
2022-12-17T17:53:15.896Z,100075.14
2022-12-17T17:56:25.447Z,100080.63
2022-12-17T17:59:34.038Z,100074.13
2022-12-17T18:02:41.048Z,100072.75
2022-12-17T18:05:53.129Z,100086.30
2022-12-17T18:08:58.562Z,100092.11
2022-12-17T18:12:03.773Z,100084.73
2022-12-17T18:15:15.896Z,100071.35
2022-12-17T18:18:17.712Z,100069.66
2022-12-17T18:21:26.387Z,100082.00
2022-12-17T18:24:37.610Z,100090.41
2022-12-17T18:27:44.833Z,100103.58
2022-12-17T18:30:52.022Z,100117.29
2022-12-17T18:34:00.170Z,100119.36
2022-12-17T18:37:05.846Z,100108.04
2022-12-17T18:40:11.423Z,100126.59
2022-12-17T18:43:31.342Z,100118.56
2022-12-17T18:46:37.128Z,100106.41
2022-12-17T18:49:45.947Z,100095.80
2022-12-17T18:52:51.510Z,100118.78
2022-12-17T18:55:58.173Z,100131.50
2022-12-17T18:59:06.431Z,100129.45
2022-12-17T19:02:13.504Z,100116.45
2022-12-17T19:05:19.500Z,100123.84
2022-12-17T19:08:25.374Z,100114.08
2022-12-17T19:11:37.933Z,100118.38
2022-12-17T19:14:41.146Z,100128.33
2022-12-17T19:17:50.077Z,100127.47
2022-12-17T19:20:56.762Z,100127.98
2022-12-17T19:24:03.521Z,100125.77
2022-12-17T19:27:10.462Z,100119.30
2022-12-17T19:30:19.597Z,100124.78
2022-12-17T19:33:26.441Z,100122.39
2022-12-17T19:36:34.534Z,100125.31
2022-12-17T19:39:43.443Z,100131.84
2022-12-17T19:42:48.391Z,100133.08
2022-12-17T19:45:55.403Z,100134.80
2022-12-17T19:49:03.571Z,100133.62
2022-12-17T19:52:11.341Z,100131.06
2022-12-17T19:55:16.378Z,100140.33
2022-12-17T19:58:22.572Z,100142.75
2022-12-17T20:01:33.786Z,100150.43
2022-12-17T20:04:39.085Z,100150.11
2022-12-17T20:07:45.481Z,100158.20
2022-12-17T20:10:52.273Z,100170.52
2022-12-17T20:14:01.109Z,100165.20
2022-12-17T20:17:14.530Z,100170.86
2022-12-17T20:20:21.560Z,100180.45
2022-12-17T20:23:27.738Z,100183.56
2022-12-17T20:26:35.273Z,100186.30
2022-12-17T20:29:40.401Z,100188.40
2022-12-17T20:32:46.414Z,100191.83
2022-12-17T20:35:54.664Z,100188.09
2022-12-17T20:39:00.940Z,100194.45
2022-12-17T20:42:08.098Z,100199.44
2022-12-17T20:45:14.461Z,100211.13
2022-12-17T20:48:20.594Z,100212.88
2022-12-17T20:51:30.155Z,100221.32
2022-12-17T20:54:36.576Z,100232.54
2022-12-17T20:57:41.521Z,100227.84
2022-12-17T21:00:49.403Z,100241.11
2022-12-17T21:03:56.564Z,100259.62
2022-12-17T21:07:03.289Z,100270.11
2022-12-17T21:10:11.539Z,100263.63
2022-12-17T21:13:37.835Z,100291.81
2022-12-17T21:16:45.532Z,100307.17
2022-12-17T21:19:51.736Z,100323.70
2022-12-17T21:22:57.714Z,100317.18
2022-12-17T21:26:22.331Z,100336.56
2022-12-17T21:29:28.187Z,100338.23
2022-12-17T21:32:33.960Z,100337.86
2022-12-17T21:35:42.588Z,100353.49
2022-12-17T21:38:47.616Z,100342.66
2022-12-17T21:41:56.585Z,100368.59
2022-12-17T21:45:03.649Z,100375.44
2022-12-17T21:48:14.153Z,100393.89
2022-12-17T21:51:19.001Z,100417.30
2022-12-17T21:54:26.284Z,100427.69
2022-12-17T21:57:33.085Z,100447.69
2022-12-17T22:00:38.007Z,100448.27
2022-12-17T22:03:43.774Z,100438.77
2022-12-17T22:06:58.442Z,100441.64
2022-12-17T22:10:03.687Z,100462.79
2022-12-17T22:13:08.599Z,100460.41
2022-12-17T22:16:15.677Z,100463.94
2022-12-17T22:19:24.494Z,100487.20
2022-12-17T22:22:31.658Z,100497.28
2022-12-17T22:25:38.365Z,100492.87
2022-12-17T22:28:44.592Z,100508.24
2022-12-17T22:32:09.308Z,100507.86
2022-12-17T22:36:50.321Z,100518.28
2022-12-17T22:41:27.939Z,100516.28
2022-12-17T22:44:32.196Z,100521.56
2022-12-17T22:45:08.139Z,100544.69
2022-12-17T22:48:08.421Z,100541.18
2022-12-17T22:51:28.282Z,100539.52
2022-12-17T22:54:23.587Z,100545.36
2022-12-17T22:57:36.229Z,100548.64
2022-12-17T23:00:42.752Z,100569.90
2022-12-17T23:03:48.477Z,100564.44
2022-12-17T23:06:53.842Z,100569.69
2022-12-17T23:09:59.265Z,100567.14
2022-12-17T23:13:07.699Z,100583.75
2022-12-17T23:16:13.875Z,100583.70
2022-12-17T23:19:19.636Z,100600.39
2022-12-17T23:22:25.897Z,100597.27
2022-12-17T23:25:31.642Z,100606.91
2022-12-17T23:28:36.596Z,100605.22
2022-12-17T23:31:47.587Z,100618.69
2022-12-17T23:34:53.374Z,100629.92
2022-12-17T23:37:59.317Z,100640.64
2022-12-17T23:41:05.556Z,100643.87
2022-12-17T23:44:14.549Z,100652.40
2022-12-17T23:47:21.927Z,100658.92
2022-12-17T23:50:27.746Z,100665.95
2022-12-17T23:53:33.510Z,100682.11
2022-12-17T23:56:40.988Z,100664.28
2022-12-17T23:59:46.930Z,100692.84
